EZY249 EGKK-LPMA
Flight info
| Callsign | EZY249 |
|---|---|
| Flight time | N/A |
| Altitude | 37000 |
| Route | NOVMA L620 SAM M195 LORKU DCT EBOMO DCT COQUE DCT KORUL DCT DEMOS DCT IBIDO DCT MARUM DCT RAKUN |
| Aircraft | A20N/M-SDE2E3FGHIRWXY/LB1 |
Departure
| Time | 2026-04-19 09:41 |
|---|---|
| Airport | London Gatwick Airport (EGKK) |
Arrival
| Time | N/A |
|---|---|
| Airport | Cristiano Ronaldo International Airport (LPMA) |
| Time | Latitude | Longitude | Altitude | Speed | Heading |
|---|---|---|---|---|---|
| 2026-04-19 09:06 | 51.15816 | -0.17690 | 194 ft | 0 kts | 347° |
| 2026-04-19 09:28 | 51.15809 | -0.17687 | 194 ft | 2 kts | 347° |
| 2026-04-19 09:29 | 51.15795 | -0.17682 | 194 ft | 2 kts | 347° |
| 2026-04-19 09:29 | 51.15781 | -0.17677 | 195 ft | 2 kts | 347° |
| 2026-04-19 09:29 | 51.15766 | -0.17672 | 195 ft | 2 kts | 348° |
| 2026-04-19 09:29 | 51.15751 | -0.17666 | 195 ft | 2 kts | 347° |
| 2026-04-19 09:30 | 51.15741 | -0.17663 | 195 ft | 1 kts | 21° |
| 2026-04-19 09:30 | 51.15735 | -0.17671 | 195 ft | 0 kts | 72° |
| 2026-04-19 09:30 | 51.15734 | -0.17681 | 195 ft | 1 kts | 79° |
| 2026-04-19 09:30 | 51.15734 | -0.17684 | 195 ft | 0 kts | 78° |
| 2026-04-19 09:35 | 51.15734 | -0.17682 | 195 ft | 0 kts | 78° |
| 2026-04-19 09:35 | 51.15738 | -0.17660 | 195 ft | 5 kts | 76° |
| 2026-04-19 09:35 | 51.15751 | -0.17565 | 195 ft | 9 kts | 84° |
| 2026-04-19 09:35 | 51.15709 | -0.17495 | 195 ft | 10 kts | 165° |
| 2026-04-19 09:36 | 51.15631 | -0.17469 | 194 ft | 12 kts | 167° |
| 2026-04-19 09:36 | 51.15550 | -0.17441 | 192 ft | 9 kts | 167° |
| 2026-04-19 09:36 | 51.15475 | -0.17414 | 190 ft | 12 kts | 168° |
| 2026-04-19 09:36 | 51.15374 | -0.17380 | 187 ft | 16 kts | 168° |
| 2026-04-19 09:37 | 51.15261 | -0.17333 | 185 ft | 17 kts | 149° |
| 2026-04-19 09:37 | 51.15184 | -0.17189 | 182 ft | 18 kts | 98° |
| 2026-04-19 09:37 | 51.15205 | -0.17002 | 181 ft | 14 kts | 77° |
| 2026-04-19 09:37 | 51.15216 | -0.16921 | 183 ft | 0 kts | 78° |
| 2026-04-19 09:39 | 51.15217 | -0.16919 | 183 ft | 1 kts | 78° |
| 2026-04-19 09:39 | 51.15220 | -0.16861 | 184 ft | 8 kts | 103° |
| 2026-04-19 09:39 | 51.15172 | -0.16791 | 186 ft | 10 kts | 170° |
| 2026-04-19 09:40 | 51.15130 | -0.16794 | 187 ft | 6 kts | 219° |
| 2026-04-19 09:40 | 51.15113 | -0.16864 | 186 ft | 8 kts | 260° |
| 2026-04-19 09:40 | 51.15099 | -0.16968 | 185 ft | 11 kts | 256° |
| 2026-04-19 09:40 | 51.15052 | -0.17305 | 189 ft | 63 kts | 258° |
| 2026-04-19 09:41 | 51.14912 | -0.18321 | 195 ft | 125 kts | 258° |
| 2026-04-19 09:41 | 51.14686 | -0.19962 | 198 ft | 175 kts | 260° |
| 2026-04-19 09:41 | 51.14399 | -0.21872 | 739 ft | 177 kts | 259° |
| 2026-04-19 09:41 | 51.14127 | -0.23801 | 1348 ft | 181 kts | 262° |
| 2026-04-19 09:42 | 51.13868 | -0.25753 | 2041 ft | 181 kts | 262° |
| 2026-04-19 09:42 | 51.13591 | -0.27718 | 2555 ft | 188 kts | 263° |
| 2026-04-19 09:42 | 51.13324 | -0.29834 | 2949 ft | 203 kts | 261° |
| 2026-04-19 09:42 | 51.13018 | -0.32145 | 3331 ft | 220 kts | 262° |
| 2026-04-19 09:43 | 51.12686 | -0.34631 | 3665 ft | 241 kts | 261° |
| 2026-04-19 09:43 | 51.12315 | -0.37357 | 3933 ft | 260 kts | 261° |
| 2026-04-19 09:43 | 51.11918 | -0.40213 | 3948 ft | 263 kts | 261° |
| 2026-04-19 09:43 | 51.11415 | -0.43028 | 3953 ft | 265 kts | 253° |
| 2026-04-19 09:44 | 51.10683 | -0.45746 | 3959 ft | 266 kts | 247° |
| 2026-04-19 09:44 | 51.09851 | -0.48417 | 3961 ft | 266 kts | 246° |
| 2026-04-19 09:44 | 51.09019 | -0.51036 | 3958 ft | 266 kts | 246° |
| 2026-04-19 09:44 | 51.08179 | -0.53695 | 4155 ft | 272 kts | 246° |
| 2026-04-19 09:45 | 51.07336 | -0.56379 | 5034 ft | 273 kts | 246° |
| 2026-04-19 09:45 | 51.06505 | -0.59031 | 6046 ft | 270 kts | 246° |
| 2026-04-19 09:45 | 51.05719 | -0.61704 | 6926 ft | 270 kts | 252° |
| 2026-04-19 09:45 | 51.05139 | -0.64569 | 7779 ft | 271 kts | 260° |
| 2026-04-19 09:46 | 51.04731 | -0.67479 | 8597 ft | 274 kts | 261° |
| 2026-04-19 09:46 | 51.04341 | -0.70454 | 9401 ft | 277 kts | 262° |
| 2026-04-19 09:46 | 51.03946 | -0.73466 | 10186 ft | 280 kts | 261° |
| 2026-04-19 09:46 | 51.03547 | -0.76478 | 10943 ft | 283 kts | 261° |
| 2026-04-19 09:47 | 51.03124 | -0.79656 | 11411 ft | 298 kts | 261° |
| 2026-04-19 09:47 | 51.02682 | -0.82941 | 11748 ft | 316 kts | 261° |
| 2026-04-19 09:47 | 51.02207 | -0.86449 | 12077 ft | 333 kts | 260° |
| 2026-04-19 09:47 | 51.01712 | -0.90077 | 12601 ft | 342 kts | 260° |
| 2026-04-19 09:48 | 51.01208 | -0.93750 | 13343 ft | 344 kts | 260° |
| 2026-04-19 09:48 | 51.00693 | -0.97501 | 14098 ft | 346 kts | 260° |
| 2026-04-19 09:48 | 51.00185 | -1.01215 | 14805 ft | 348 kts | 261° |
| 2026-04-19 09:48 | 50.99666 | -1.05002 | 15483 ft | 351 kts | 261° |
| 2026-04-19 09:49 | 50.99145 | -1.08781 | 16149 ft | 353 kts | 261° |
| 2026-04-19 09:49 | 50.98620 | -1.12572 | 16805 ft | 355 kts | 261° |
| 2026-04-19 09:49 | 50.98087 | -1.16411 | 17439 ft | 358 kts | 261° |
| 2026-04-19 09:49 | 50.97548 | -1.20272 | 18045 ft | 360 kts | 261° |
| 2026-04-19 09:50 | 50.97008 | -1.24136 | 18657 ft | 362 kts | 261° |
| 2026-04-19 09:50 | 50.96462 | -1.28034 | 19272 ft | 364 kts | 261° |
| 2026-04-19 09:50 | 50.95741 | -1.31889 | 19797 ft | 373 kts | 249° |
| 2026-04-19 09:50 | 50.94300 | -1.35359 | 20353 ft | 383 kts | 232° |
| 2026-04-19 09:51 | 50.92236 | -1.38084 | 20928 ft | 393 kts | 219° |
| 2026-04-19 09:51 | 50.89944 | -1.40464 | 21459 ft | 396 kts | 218° |
| 2026-04-19 09:51 | 50.87613 | -1.42841 | 21945 ft | 399 kts | 218° |
| 2026-04-19 09:51 | 50.85285 | -1.45216 | 22411 ft | 403 kts | 218° |
| 2026-04-19 09:52 | 50.82922 | -1.47640 | 22886 ft | 406 kts | 219° |
| 2026-04-19 09:52 | 50.80554 | -1.50080 | 23350 ft | 409 kts | 219° |
| 2026-04-19 09:52 | 50.78180 | -1.52529 | 23791 ft | 412 kts | 219° |
| 2026-04-19 09:52 | 50.75790 | -1.54998 | 24243 ft | 414 kts | 219° |
| 2026-04-19 09:53 | 50.73369 | -1.57500 | 24702 ft | 416 kts | 219° |
| 2026-04-19 09:53 | 50.70943 | -1.60004 | 25127 ft | 419 kts | 219° |
| 2026-04-19 09:53 | 50.68504 | -1.62520 | 25535 ft | 422 kts | 219° |
| 2026-04-19 09:53 | 50.66054 | -1.65041 | 25926 ft | 424 kts | 218° |
| 2026-04-19 09:54 | 50.63576 | -1.67600 | 26316 ft | 427 kts | 219° |
| 2026-04-19 09:54 | 50.61104 | -1.70152 | 26677 ft | 429 kts | 219° |
| 2026-04-19 09:54 | 50.58569 | -1.72761 | 27034 ft | 432 kts | 219° |
| 2026-04-19 09:54 | 50.56060 | -1.75334 | 27393 ft | 435 kts | 219° |
| 2026-04-19 09:55 | 50.53513 | -1.77939 | 27730 ft | 437 kts | 219° |
| 2026-04-19 09:55 | 50.50985 | -1.80523 | 28051 ft | 440 kts | 219° |
| 2026-04-19 09:55 | 50.48435 | -1.83126 | 28460 ft | 440 kts | 219° |
| 2026-04-19 09:55 | 50.45867 | -1.85743 | 28962 ft | 437 kts | 219° |
| 2026-04-19 09:56 | 50.43310 | -1.88342 | 29445 ft | 436 kts | 219° |
| 2026-04-19 09:56 | 50.40802 | -1.90891 | 29880 ft | 435 kts | 219° |
| 2026-04-19 09:56 | 50.38275 | -1.93455 | 30301 ft | 434 kts | 219° |
| 2026-04-19 09:56 | 50.35738 | -1.96027 | 30721 ft | 433 kts | 219° |
| 2026-04-19 09:57 | 50.33244 | -1.98550 | 31086 ft | 433 kts | 219° |
| 2026-04-19 09:57 | 50.30696 | -2.01126 | 31456 ft | 432 kts | 219° |
| 2026-04-19 09:57 | 50.28184 | -2.03661 | 31806 ft | 432 kts | 219° |
| 2026-04-19 09:57 | 50.25687 | -2.06180 | 32128 ft | 432 kts | 219° |
| 2026-04-19 09:58 | 50.23151 | -2.08714 | 32451 ft | 432 kts | 218° |
| 2026-04-19 09:58 | 50.20622 | -2.11191 | 32778 ft | 432 kts | 218° |
| 2026-04-19 09:58 | 50.18082 | -2.13660 | 33073 ft | 432 kts | 218° |
| 2026-04-19 09:58 | 50.15540 | -2.16128 | 33379 ft | 432 kts | 218° |
| 2026-04-19 09:59 | 50.12997 | -2.18595 | 33674 ft | 432 kts | 218° |
| 2026-04-19 09:59 | 50.10453 | -2.21061 | 33951 ft | 432 kts | 218° |
| 2026-04-19 09:59 | 50.07890 | -2.23545 | 34231 ft | 431 kts | 218° |
| 2026-04-19 09:59 | 50.05378 | -2.25981 | 34503 ft | 431 kts | 218° |
| 2026-04-19 10:00 | 50.02839 | -2.28435 | 34775 ft | 431 kts | 218° |
| 2026-04-19 10:00 | 50.00305 | -2.30883 | 34988 ft | 431 kts | 218° |
| 2026-04-19 10:00 | 49.97758 | -2.33340 | 35190 ft | 430 kts | 217° |
| 2026-04-19 10:00 | 49.95203 | -2.35801 | 35391 ft | 430 kts | 217° |
| 2026-04-19 10:01 | 49.92671 | -2.38239 | 35583 ft | 430 kts | 217° |
| 2026-04-19 10:01 | 49.90126 | -2.40695 | 35767 ft | 429 kts | 217° |
| 2026-04-19 10:01 | 49.87590 | -2.43128 | 35927 ft | 429 kts | 217° |
| 2026-04-19 10:01 | 49.85078 | -2.45527 | 36068 ft | 429 kts | 217° |
| 2026-04-19 10:02 | 49.82550 | -2.47941 | 36214 ft | 429 kts | 217° |
| 2026-04-19 10:02 | 49.80021 | -2.50358 | 36333 ft | 429 kts | 217° |
| 2026-04-19 10:02 | 49.77462 | -2.52803 | 36447 ft | 429 kts | 217° |
| 2026-04-19 10:02 | 49.74930 | -2.55221 | 36596 ft | 430 kts | 217° |
| 2026-04-19 10:03 | 49.72391 | -2.57644 | 36743 ft | 430 kts | 217° |
| 2026-04-19 10:03 | 49.69877 | -2.60041 | 36877 ft | 431 kts | 217° |
| 2026-04-19 10:03 | 49.67305 | -2.62489 | 37023 ft | 431 kts | 217° |
| 2026-04-19 10:03 | 49.64780 | -2.64891 | 37161 ft | 432 kts | 217° |
| 2026-04-19 10:04 | 49.62226 | -2.67328 | 37287 ft | 433 kts | 216° |
| 2026-04-19 10:04 | 49.57110 | -2.72205 | 37313 ft | 434 kts | 216° |
| 2026-04-19 10:05 | 49.51990 | -2.77058 | 37319 ft | 434 kts | 216° |
| 2026-04-19 10:05 | 49.46847 | -2.81916 | 37309 ft | 434 kts | 216° |
| 2026-04-19 10:06 | 49.41730 | -2.86735 | 37315 ft | 434 kts | 216° |
| 2026-04-19 10:06 | 49.36609 | -2.91546 | 37314 ft | 434 kts | 216° |
| 2026-04-19 10:07 | 49.31479 | -2.96352 | 37311 ft | 433 kts | 216° |
| 2026-04-19 10:07 | 49.26344 | -3.01149 | 37303 ft | 433 kts | 216° |
| 2026-04-19 10:08 | 49.21224 | -3.05922 | 37310 ft | 432 kts | 216° |
| 2026-04-19 10:08 | 49.16083 | -3.10702 | 37311 ft | 432 kts | 216° |
| 2026-04-19 10:09 | 49.10985 | -3.15430 | 37317 ft | 431 kts | 216° |
| 2026-04-19 10:09 | 49.05848 | -3.20186 | 37313 ft | 432 kts | 216° |
| 2026-04-19 10:10 | 49.00720 | -3.24919 | 37304 ft | 431 kts | 216° |
| 2026-04-19 10:10 | 48.95593 | -3.29637 | 37312 ft | 431 kts | 216° |
| 2026-04-19 10:11 | 48.90485 | -3.34326 | 37314 ft | 431 kts | 216° |
| 2026-04-19 10:11 | 48.85357 | -3.39003 | 37310 ft | 430 kts | 215° |
| 2026-04-19 10:12 | 48.80232 | -3.43666 | 37303 ft | 430 kts | 216° |
| 2026-04-19 10:12 | 48.75141 | -3.48301 | 37297 ft | 430 kts | 216° |
| 2026-04-19 10:13 | 48.70037 | -3.52941 | 37289 ft | 429 kts | 215° |
| 2026-04-19 10:13 | 48.64938 | -3.57569 | 37287 ft | 429 kts | 215° |
| 2026-04-19 10:14 | 48.59816 | -3.62206 | 37283 ft | 429 kts | 215° |
| 2026-04-19 10:14 | 48.54716 | -3.66819 | 37283 ft | 429 kts | 214° |
| 2026-04-19 10:15 | 48.49586 | -3.71467 | 37283 ft | 429 kts | 214° |
| 2026-04-19 10:15 | 48.44510 | -3.76043 | 37271 ft | 429 kts | 214° |
| 2026-04-19 10:16 | 48.39394 | -3.80635 | 37270 ft | 429 kts | 214° |
| 2026-04-19 10:16 | 48.34272 | -3.85217 | 37269 ft | 429 kts | 214° |
| 2026-04-19 10:17 | 48.29126 | -3.89812 | 37259 ft | 429 kts | 214° |
| 2026-04-19 10:17 | 48.24041 | -3.94340 | 37258 ft | 428 kts | 214° |
| 2026-04-19 10:18 | 48.18927 | -3.98877 | 37246 ft | 428 kts | 214° |
| 2026-04-19 10:18 | 48.13825 | -4.03402 | 37252 ft | 428 kts | 214° |
| 2026-04-19 10:19 | 48.06140 | -4.10196 | 37252 ft | 427 kts | 214° |
| 2026-04-19 10:19 | 48.01047 | -4.14684 | 37244 ft | 427 kts | 214° |
| 2026-04-19 10:20 | 47.95954 | -4.19160 | 37247 ft | 426 kts | 214° |
| 2026-04-19 10:20 | 47.90848 | -4.23635 | 37249 ft | 426 kts | 214° |
| 2026-04-19 10:21 | 47.85744 | -4.28081 | 37249 ft | 426 kts | 214° |
| 2026-04-19 10:21 | 47.80674 | -4.32525 | 37252 ft | 425 kts | 216° |
| 2026-04-19 10:22 | 47.75695 | -4.37144 | 37246 ft | 425 kts | 216° |
| 2026-04-19 10:22 | 47.70673 | -4.41814 | 37248 ft | 424 kts | 216° |
| 2026-04-19 10:23 | 47.65714 | -4.46403 | 37243 ft | 424 kts | 216° |
| 2026-04-19 10:23 | 47.60723 | -4.51008 | 37247 ft | 424 kts | 216° |
| 2026-04-19 10:24 | 47.55711 | -4.55616 | 37245 ft | 423 kts | 216° |
| 2026-04-19 10:24 | 47.50731 | -4.60185 | 37248 ft | 423 kts | 216° |
| 2026-04-19 10:25 | 47.45761 | -4.64732 | 37249 ft | 423 kts | 216° |
| 2026-04-19 10:25 | 47.40772 | -4.69310 | 37242 ft | 422 kts | 216° |
| 2026-04-19 10:26 | 47.35820 | -4.73837 | 37234 ft | 421 kts | 216° |
| 2026-04-19 10:26 | 47.30841 | -4.78368 | 37233 ft | 420 kts | 216° |
| 2026-04-19 10:27 | 47.25886 | -4.82864 | 37234 ft | 419 kts | 216° |
| 2026-04-19 10:27 | 47.20955 | -4.87324 | 37228 ft | 418 kts | 216° |
| 2026-04-19 10:28 | 47.16000 | -4.91797 | 37227 ft | 417 kts | 216° |
| 2026-04-19 10:28 | 47.11062 | -4.96242 | 37227 ft | 417 kts | 216° |
| 2026-04-19 10:29 | 47.06146 | -5.00666 | 37225 ft | 416 kts | 216° |
| 2026-04-19 10:29 | 47.01253 | -5.05077 | 37226 ft | 415 kts | 216° |
| 2026-04-19 10:30 | 46.96365 | -5.09475 | 37225 ft | 414 kts | 216° |
| 2026-04-19 10:30 | 46.91453 | -5.13880 | 37222 ft | 413 kts | 216° |
| 2026-04-19 10:31 | 46.86575 | -5.18231 | 37220 ft | 413 kts | 216° |
| 2026-04-19 10:31 | 46.81673 | -5.22584 | 37224 ft | 413 kts | 216° |
| 2026-04-19 10:32 | 46.76802 | -5.26910 | 37213 ft | 411 kts | 216° |
| 2026-04-19 10:32 | 46.71947 | -5.31224 | 37218 ft | 411 kts | 216° |
| 2026-04-19 10:33 | 46.67046 | -5.35571 | 37221 ft | 411 kts | 217° |
| 2026-04-19 10:33 | 46.62196 | -5.39861 | 37212 ft | 410 kts | 216° |
| 2026-04-19 10:34 | 46.57333 | -5.44156 | 37208 ft | 410 kts | 217° |
| 2026-04-19 10:34 | 46.52481 | -5.48432 | 37208 ft | 410 kts | 217° |
| 2026-04-19 10:35 | 46.47609 | -5.52717 | 37206 ft | 409 kts | 217° |
| 2026-04-19 10:35 | 46.42754 | -5.56979 | 37206 ft | 408 kts | 217° |
| 2026-04-19 10:36 | 46.37937 | -5.61197 | 37206 ft | 408 kts | 217° |
| 2026-04-19 10:36 | 46.33064 | -5.65456 | 37210 ft | 408 kts | 216° |
| 2026-04-19 10:37 | 46.28241 | -5.69688 | 37205 ft | 408 kts | 216° |
| 2026-04-19 10:37 | 46.23402 | -5.73915 | 37202 ft | 407 kts | 216° |
| 2026-04-19 10:38 | 46.18572 | -5.78118 | 37203 ft | 407 kts | 216° |
| 2026-04-19 10:38 | 46.13706 | -5.82337 | 37192 ft | 407 kts | 216° |
| 2026-04-19 10:39 | 46.08878 | -5.86515 | 37185 ft | 406 kts | 216° |
| 2026-04-19 10:39 | 46.04046 | -5.90685 | 37191 ft | 406 kts | 216° |
| 2026-04-19 10:40 | 45.99207 | -5.94852 | 37181 ft | 406 kts | 216° |
| 2026-04-19 10:40 | 45.94392 | -5.98990 | 37177 ft | 405 kts | 216° |
| 2026-04-19 10:41 | 45.89558 | -6.03138 | 37182 ft | 405 kts | 216° |
| 2026-04-19 10:41 | 45.84744 | -6.07234 | 37185 ft | 405 kts | 216° |
| 2026-04-19 10:42 | 45.79893 | -6.11360 | 37182 ft | 404 kts | 216° |
| 2026-04-19 10:42 | 45.75083 | -6.15454 | 37183 ft | 405 kts | 216° |
| 2026-04-19 10:43 | 45.70255 | -6.19559 | 37178 ft | 404 kts | 216° |
| 2026-04-19 10:43 | 45.65429 | -6.23657 | 37176 ft | 404 kts | 216° |
| 2026-04-19 10:44 | 45.60582 | -6.27763 | 37173 ft | 404 kts | 216° |
| 2026-04-19 10:44 | 45.55779 | -6.31826 | 37169 ft | 404 kts | 216° |
| 2026-04-19 10:45 | 45.50964 | -6.35889 | 37174 ft | 404 kts | 216° |
| 2026-04-19 10:45 | 45.46142 | -6.39951 | 37168 ft | 404 kts | 216° |
| 2026-04-19 10:46 | 45.41298 | -6.44023 | 37475 ft | 405 kts | 216° |
| 2026-04-19 10:46 | 45.38857 | -6.46070 | 37715 ft | 404 kts | 216° |
| 2026-04-19 10:46 | 45.36443 | -6.48094 | 37919 ft | 403 kts | 216° |
| 2026-04-19 10:47 | 45.34047 | -6.50101 | 38119 ft | 402 kts | 216° |
| 2026-04-19 10:47 | 45.31666 | -6.52094 | 38143 ft | 402 kts | 216° |
| 2026-04-19 10:47 | 45.26832 | -6.56135 | 38153 ft | 402 kts | 216° |
| 2026-04-19 10:48 | 45.22050 | -6.60122 | 38146 ft | 402 kts | 216° |
| 2026-04-19 10:48 | 45.17213 | -6.64149 | 38149 ft | 401 kts | 216° |
| 2026-04-19 10:49 | 45.12437 | -6.68131 | 38142 ft | 400 kts | 215° |
| 2026-04-19 10:49 | 45.07657 | -6.72111 | 38143 ft | 400 kts | 215° |
| 2026-04-19 10:50 | 45.02853 | -6.76089 | 38131 ft | 401 kts | 215° |
| 2026-04-19 10:50 | 44.98056 | -6.80052 | 38129 ft | 400 kts | 215° |
| 2026-04-19 10:51 | 44.93268 | -6.83996 | 38119 ft | 400 kts | 215° |
| 2026-04-19 10:51 | 44.88454 | -6.87949 | 38118 ft | 401 kts | 214° |
| 2026-04-19 10:52 | 44.83622 | -6.91907 | 38115 ft | 401 kts | 216° |
| 2026-04-19 10:52 | 44.78932 | -6.96056 | 38115 ft | 400 kts | 216° |
| 2026-04-19 10:53 | 44.74228 | -7.00218 | 38113 ft | 399 kts | 216° |
| 2026-04-19 10:53 | 44.69523 | -7.04378 | 38109 ft | 399 kts | 216° |
| 2026-04-19 10:54 | 44.64817 | -7.08533 | 38110 ft | 399 kts | 216° |
| 2026-04-19 10:54 | 44.60110 | -7.12680 | 38110 ft | 400 kts | 216° |
| 2026-04-19 10:55 | 44.55423 | -7.16805 | 38107 ft | 400 kts | 216° |
| 2026-04-19 10:55 | 44.50709 | -7.20944 | 38101 ft | 400 kts | 216° |
| 2026-04-19 10:56 | 44.46003 | -7.25067 | 38100 ft | 400 kts | 216° |
| 2026-04-19 10:56 | 44.41298 | -7.29183 | 38097 ft | 400 kts | 216° |
| 2026-04-19 10:57 | 44.36608 | -7.33279 | 38097 ft | 400 kts | 216° |
| 2026-04-19 10:57 | 44.31858 | -7.37417 | 38092 ft | 399 kts | 216° |
| 2026-04-19 10:58 | 44.27154 | -7.41508 | 38089 ft | 400 kts | 216° |
| 2026-04-19 10:58 | 44.22463 | -7.45579 | 38085 ft | 400 kts | 216° |
| 2026-04-19 10:59 | 44.17723 | -7.49685 | 38079 ft | 400 kts | 216° |
| 2026-04-19 10:59 | 44.13032 | -7.53741 | 38079 ft | 400 kts | 216° |
| 2026-04-19 11:00 | 44.08295 | -7.57830 | 38080 ft | 400 kts | 216° |
| 2026-04-19 11:00 | 44.03599 | -7.61874 | 38075 ft | 400 kts | 216° |
| 2026-04-19 11:01 | 43.98869 | -7.65943 | 38070 ft | 400 kts | 215° |
| 2026-04-19 11:01 | 43.94169 | -7.70003 | 38056 ft | 400 kts | 215° |
| 2026-04-19 11:02 | 43.89434 | -7.74074 | 38049 ft | 401 kts | 214° |
| 2026-04-19 11:02 | 43.84683 | -7.78117 | 38053 ft | 401 kts | 214° |
| 2026-04-19 11:03 | 43.79963 | -7.82132 | 38048 ft | 401 kts | 214° |
| 2026-04-19 11:03 | 43.75211 | -7.86171 | 38041 ft | 401 kts | 214° |
| 2026-04-19 11:04 | 43.70445 | -7.90220 | 38035 ft | 401 kts | 214° |
| 2026-04-19 11:04 | 43.65722 | -7.94227 | 38035 ft | 401 kts | 214° |
| 2026-04-19 11:05 | 43.60962 | -7.98257 | 38036 ft | 401 kts | 214° |
| 2026-04-19 11:05 | 43.56198 | -8.02285 | 38036 ft | 402 kts | 214° |
| 2026-04-19 11:06 | 43.51461 | -8.06281 | 38038 ft | 402 kts | 214° |
| 2026-04-19 11:06 | 43.46703 | -8.10288 | 38029 ft | 402 kts | 214° |
| 2026-04-19 11:07 | 43.41927 | -8.14302 | 38031 ft | 402 kts | 214° |
| 2026-04-19 11:07 | 43.37136 | -8.18321 | 38030 ft | 403 kts | 214° |
| 2026-04-19 11:08 | 43.32356 | -8.22324 | 38035 ft | 404 kts | 214° |
| 2026-04-19 11:08 | 43.27551 | -8.26341 | 38026 ft | 404 kts | 214° |
| 2026-04-19 11:09 | 43.22755 | -8.30341 | 38032 ft | 404 kts | 214° |
| 2026-04-19 11:09 | 43.17968 | -8.34327 | 38017 ft | 402 kts | 214° |
| 2026-04-19 11:10 | 43.15613 | -8.36285 | 37766 ft | 399 kts | 214° |
| 2026-04-19 11:10 | 43.13244 | -8.38254 | 37162 ft | 398 kts | 213° |
| 2026-04-19 11:10 | 43.10857 | -8.40236 | 37037 ft | 402 kts | 213° |
| 2026-04-19 11:10 | 43.08481 | -8.42208 | 37037 ft | 405 kts | 213° |
| 2026-04-19 11:11 | 43.03663 | -8.46198 | 37040 ft | 406 kts | 213° |
| 2026-04-19 11:11 | 42.98818 | -8.50201 | 37039 ft | 407 kts | 213° |
| 2026-04-19 11:12 | 42.94005 | -8.54171 | 37042 ft | 407 kts | 213° |
| 2026-04-19 11:12 | 42.89142 | -8.58175 | 37046 ft | 407 kts | 213° |
| 2026-04-19 11:13 | 42.84285 | -8.62143 | 37048 ft | 406 kts | 213° |
| 2026-04-19 11:13 | 42.79476 | -8.66078 | 37047 ft | 406 kts | 213° |
| 2026-04-19 11:14 | 42.74648 | -8.70054 | 37051 ft | 406 kts | 213° |
| 2026-04-19 11:14 | 42.69785 | -8.74042 | 37056 ft | 406 kts | 213° |
| 2026-04-19 11:15 | 42.64949 | -8.77992 | 37046 ft | 406 kts | 212° |
| 2026-04-19 11:15 | 42.60132 | -8.81916 | 37036 ft | 406 kts | 213° |
| 2026-04-19 11:16 | 42.55284 | -8.85858 | 37030 ft | 406 kts | 213° |
| 2026-04-19 11:16 | 42.50463 | -8.89771 | 37023 ft | 406 kts | 213° |
| 2026-04-19 11:17 | 42.45594 | -8.93716 | 37019 ft | 406 kts | 212° |
| 2026-04-19 11:17 | 42.40760 | -8.97624 | 37022 ft | 406 kts | 212° |
| 2026-04-19 11:18 | 42.35917 | -9.01534 | 37020 ft | 407 kts | 212° |
| 2026-04-19 11:18 | 42.31076 | -9.05433 | 37021 ft | 407 kts | 212° |
| 2026-04-19 11:19 | 42.26205 | -9.09347 | 37025 ft | 407 kts | 212° |
| 2026-04-19 11:19 | 42.21368 | -9.13230 | 37021 ft | 407 kts | 212° |
| 2026-04-19 11:20 | 42.16518 | -9.17116 | 37029 ft | 406 kts | 212° |
| 2026-04-19 11:20 | 42.11653 | -9.21007 | 37029 ft | 407 kts | 212° |
| 2026-04-19 11:21 | 42.06791 | -9.24889 | 37031 ft | 407 kts | 212° |
| 2026-04-19 11:22 | 41.99478 | -9.30714 | 37024 ft | 408 kts | 212° |
| 2026-04-19 11:22 | 41.94627 | -9.34568 | 37030 ft | 408 kts | 212° |
| 2026-04-19 11:23 | 41.89738 | -9.38473 | 37034 ft | 408 kts | 213° |
| 2026-04-19 11:23 | 41.84891 | -9.42364 | 37039 ft | 408 kts | 213° |
| 2026-04-19 11:24 | 41.80035 | -9.46259 | 37038 ft | 408 kts | 213° |
| 2026-04-19 11:24 | 41.75156 | -9.50173 | 37037 ft | 407 kts | 213° |
| 2026-04-19 11:25 | 41.70332 | -9.54037 | 37042 ft | 406 kts | 213° |
| 2026-04-19 11:25 | 41.65468 | -9.57929 | 37042 ft | 406 kts | 213° |
| 2026-04-19 11:26 | 41.60638 | -9.61787 | 37041 ft | 407 kts | 213° |
| 2026-04-19 11:26 | 41.55764 | -9.65673 | 37042 ft | 407 kts | 212° |
| 2026-04-19 11:27 | 41.50918 | -9.69557 | 37042 ft | 407 kts | 212° |
| 2026-04-19 11:27 | 41.46092 | -9.73406 | 37042 ft | 407 kts | 212° |
| 2026-04-19 11:28 | 41.41244 | -9.77256 | 37044 ft | 407 kts | 212° |
| 2026-04-19 11:28 | 41.36386 | -9.81103 | 37043 ft | 406 kts | 212° |
| 2026-04-19 11:29 | 41.31530 | -9.84942 | 37038 ft | 407 kts | 212° |
| 2026-04-19 11:29 | 41.26678 | -9.88769 | 37036 ft | 407 kts | 212° |
| 2026-04-19 11:30 | 41.21805 | -9.92607 | 37033 ft | 406 kts | 212° |
| 2026-04-19 11:30 | 41.16949 | -9.96423 | 37036 ft | 406 kts | 212° |
| 2026-04-19 11:31 | 41.12100 | -10.00229 | 37034 ft | 406 kts | 212° |
| 2026-04-19 11:31 | 41.07259 | -10.04021 | 37036 ft | 406 kts | 212° |
| 2026-04-19 11:32 | 41.02406 | -10.07816 | 37037 ft | 405 kts | 212° |
| 2026-04-19 11:32 | 40.97561 | -10.11597 | 37038 ft | 405 kts | 212° |
| 2026-04-19 11:33 | 40.92708 | -10.15378 | 37040 ft | 406 kts | 212° |
| 2026-04-19 11:33 | 40.87846 | -10.19161 | 37040 ft | 406 kts | 213° |
| 2026-04-19 11:34 | 40.83046 | -10.23057 | 37040 ft | 406 kts | 213° |
| 2026-04-19 11:34 | 40.78238 | -10.26993 | 37044 ft | 405 kts | 213° |
| 2026-04-19 11:35 | 40.73481 | -10.30877 | 37045 ft | 405 kts | 213° |
| 2026-04-19 11:35 | 40.68670 | -10.34797 | 37046 ft | 405 kts | 213° |
| 2026-04-19 11:36 | 40.63891 | -10.38683 | 37048 ft | 405 kts | 213° |
| 2026-04-19 11:36 | 40.59114 | -10.42560 | 37048 ft | 405 kts | 213° |
| 2026-04-19 11:37 | 40.54322 | -10.46441 | 37047 ft | 405 kts | 213° |
| 2026-04-19 11:37 | 40.49491 | -10.50347 | 37052 ft | 405 kts | 213° |
| 2026-04-19 11:38 | 40.44696 | -10.54218 | 37052 ft | 405 kts | 213° |
| 2026-04-19 11:38 | 40.39889 | -10.58092 | 37053 ft | 405 kts | 213° |
| 2026-04-19 11:39 | 40.35121 | -10.61929 | 37053 ft | 405 kts | 213° |
| 2026-04-19 11:39 | 40.30299 | -10.65804 | 37053 ft | 405 kts | 213° |
| 2026-04-19 11:40 | 40.25501 | -10.69679 | 37053 ft | 405 kts | 213° |
| 2026-04-19 11:40 | 40.23114 | -10.71601 | 37229 ft | 405 kts | 213° |
| 2026-04-19 11:40 | 40.20695 | -10.73544 | 37122 ft | 403 kts | 213° |
| 2026-04-19 11:40 | 40.18334 | -10.75434 | 37256 ft | 402 kts | 213° |
| 2026-04-19 11:41 | 40.15943 | -10.77347 | 36863 ft | 402 kts | 212° |
| 2026-04-19 11:41 | 40.13552 | -10.79257 | 36990 ft | 404 kts | 212° |
| 2026-04-19 11:41 | 40.11136 | -10.81185 | 37032 ft | 405 kts | 212° |
| 2026-04-19 11:42 | 40.06347 | -10.85000 | 37052 ft | 404 kts | 213° |
| 2026-04-19 11:42 | 40.01555 | -10.88810 | 37054 ft | 403 kts | 213° |
| 2026-04-19 11:42 | 39.99147 | -10.90722 | 37394 ft | 403 kts | 213° |
| 2026-04-19 11:43 | 39.96792 | -10.92592 | 37175 ft | 401 kts | 213° |
| 2026-04-19 11:43 | 39.92033 | -10.96364 | 37074 ft | 401 kts | 213° |
| 2026-04-19 11:44 | 39.87256 | -11.00137 | 37058 ft | 401 kts | 212° |
| 2026-04-19 11:44 | 39.82467 | -11.03900 | 37054 ft | 402 kts | 212° |
| 2026-04-19 11:45 | 39.77660 | -11.07679 | 37055 ft | 402 kts | 212° |
| 2026-04-19 11:45 | 39.72886 | -11.11434 | 37056 ft | 402 kts | 212° |
| 2026-04-19 11:46 | 39.68134 | -11.15167 | 37055 ft | 402 kts | 212° |
| 2026-04-19 11:46 | 39.63342 | -11.18927 | 37056 ft | 403 kts | 212° |
| 2026-04-19 11:47 | 39.58534 | -11.22692 | 37057 ft | 403 kts | 212° |
| 2026-04-19 11:47 | 39.53762 | -11.26426 | 37058 ft | 402 kts | 212° |
| 2026-04-19 11:48 | 39.48963 | -11.30175 | 37055 ft | 403 kts | 212° |
| 2026-04-19 11:48 | 39.44178 | -11.33907 | 37057 ft | 402 kts | 212° |
| 2026-04-19 11:49 | 39.39384 | -11.37638 | 37056 ft | 402 kts | 212° |
| 2026-04-19 11:49 | 39.34600 | -11.41356 | 37058 ft | 403 kts | 212° |
| 2026-04-19 11:50 | 39.29797 | -11.45082 | 37058 ft | 403 kts | 212° |
| 2026-04-19 11:50 | 39.24994 | -11.48802 | 37057 ft | 403 kts | 212° |
| 2026-04-19 11:51 | 39.20182 | -11.52522 | 37055 ft | 403 kts | 212° |
| 2026-04-19 11:51 | 39.15380 | -11.56229 | 37057 ft | 403 kts | 212° |
| 2026-04-19 11:52 | 39.10574 | -11.59937 | 37058 ft | 403 kts | 212° |
| 2026-04-19 11:52 | 39.05753 | -11.63648 | 37057 ft | 403 kts | 212° |
| 2026-04-19 11:53 | 39.00946 | -11.67353 | 37056 ft | 403 kts | 211° |
| 2026-04-19 11:53 | 38.96154 | -11.71054 | 37058 ft | 403 kts | 211° |
| 2026-04-19 11:54 | 38.91336 | -11.74755 | 37055 ft | 404 kts | 211° |
| 2026-04-19 11:54 | 38.86485 | -11.78457 | 37059 ft | 404 kts | 211° |
| 2026-04-19 11:55 | 38.81666 | -11.82119 | 37055 ft | 404 kts | 211° |
| 2026-04-19 11:55 | 38.76839 | -11.85791 | 37056 ft | 404 kts | 211° |
| 2026-04-19 11:56 | 38.72012 | -11.89462 | 37055 ft | 403 kts | 211° |
| 2026-04-19 11:56 | 38.67205 | -11.93113 | 37057 ft | 403 kts | 211° |
| 2026-04-19 11:57 | 38.62370 | -11.96782 | 37056 ft | 403 kts | 211° |
| 2026-04-19 11:57 | 38.57569 | -12.00418 | 37056 ft | 403 kts | 211° |
| 2026-04-19 11:58 | 38.52721 | -12.04084 | 37056 ft | 403 kts | 211° |
| 2026-04-19 11:58 | 38.47932 | -12.07700 | 37056 ft | 403 kts | 211° |
| 2026-04-19 11:59 | 38.43090 | -12.11350 | 37056 ft | 403 kts | 211° |
| 2026-04-19 11:59 | 38.38255 | -12.14990 | 37055 ft | 403 kts | 211° |
| 2026-04-19 12:00 | 38.33452 | -12.18599 | 37055 ft | 402 kts | 211° |
| 2026-04-19 12:00 | 38.28628 | -12.22218 | 37055 ft | 401 kts | 211° |
| 2026-04-19 12:01 | 38.23839 | -12.25807 | 37056 ft | 402 kts | 211° |
| 2026-04-19 12:01 | 38.19019 | -12.29413 | 37054 ft | 403 kts | 211° |
| 2026-04-19 12:02 | 38.14206 | -12.33008 | 37055 ft | 403 kts | 211° |
| 2026-04-19 12:02 | 38.09385 | -12.36603 | 37056 ft | 403 kts | 211° |
| 2026-04-19 12:03 | 38.04548 | -12.40204 | 37066 ft | 402 kts | 211° |
| 2026-04-19 12:03 | 37.99752 | -12.43769 | 37072 ft | 401 kts | 211° |
| 2026-04-19 12:04 | 37.94960 | -12.47326 | 37073 ft | 400 kts | 211° |
| 2026-04-19 12:04 | 37.90172 | -12.50876 | 37073 ft | 400 kts | 211° |
| 2026-04-19 12:05 | 37.85353 | -12.54425 | 37072 ft | 401 kts | 211° |
| 2026-04-19 12:05 | 37.80546 | -12.57962 | 37074 ft | 400 kts | 211° |
| 2026-04-19 12:06 | 37.75728 | -12.61510 | 37075 ft | 401 kts | 211° |
| 2026-04-19 12:06 | 37.70921 | -12.65049 | 37072 ft | 400 kts | 210° |
| 2026-04-19 12:07 | 37.66135 | -12.68592 | 37069 ft | 401 kts | 211° |
| 2026-04-19 12:07 | 37.61323 | -12.72146 | 37071 ft | 401 kts | 210° |
| 2026-04-19 12:08 | 37.56491 | -12.75696 | 37069 ft | 401 kts | 210° |
| 2026-04-19 12:08 | 37.51659 | -12.79237 | 37071 ft | 402 kts | 210° |
| 2026-04-19 12:09 | 37.46843 | -12.82758 | 37071 ft | 402 kts | 210° |
| 2026-04-19 12:09 | 37.42007 | -12.86289 | 37073 ft | 402 kts | 210° |
| 2026-04-19 12:10 | 37.37147 | -12.89832 | 37073 ft | 401 kts | 210° |
| 2026-04-19 12:10 | 37.32321 | -12.93343 | 37074 ft | 401 kts | 210° |
| 2026-04-19 12:11 | 37.27520 | -12.96832 | 37075 ft | 400 kts | 210° |
| 2026-04-19 12:11 | 37.22708 | -13.00324 | 37075 ft | 400 kts | 210° |
| 2026-04-19 12:12 | 37.17888 | -13.03818 | 37074 ft | 400 kts | 210° |
| 2026-04-19 12:12 | 37.13044 | -13.07322 | 37074 ft | 400 kts | 210° |
| 2026-04-19 12:13 | 37.08238 | -13.10793 | 37072 ft | 401 kts | 210° |
| 2026-04-19 12:13 | 37.03387 | -13.14292 | 37072 ft | 401 kts | 210° |
| 2026-04-19 12:14 | 36.98567 | -13.17763 | 37072 ft | 400 kts | 210° |
| 2026-04-19 12:14 | 36.96135 | -13.19514 | 36705 ft | 400 kts | 210° |
| 2026-04-19 12:14 | 36.93742 | -13.21233 | 36924 ft | 399 kts | 210° |
| 2026-04-19 12:15 | 36.88900 | -13.24708 | 37049 ft | 402 kts | 210° |
| 2026-04-19 12:15 | 36.84036 | -13.28177 | 37064 ft | 402 kts | 210° |
| 2026-04-19 12:16 | 36.79178 | -13.31649 | 37060 ft | 403 kts | 210° |
| 2026-04-19 12:16 | 36.74330 | -13.35114 | 37057 ft | 402 kts | 210° |
| 2026-04-19 12:17 | 36.69485 | -13.38577 | 37056 ft | 402 kts | 210° |
| 2026-04-19 12:17 | 36.64642 | -13.42031 | 37056 ft | 402 kts | 210° |
| 2026-04-19 12:18 | 36.59880 | -13.45623 | 37060 ft | 402 kts | 213° |
| 2026-04-19 12:18 | 36.55174 | -13.49375 | 37055 ft | 403 kts | 213° |
| 2026-04-19 12:19 | 36.50460 | -13.53131 | 37051 ft | 402 kts | 213° |
| 2026-04-19 12:19 | 36.45762 | -13.56871 | 37051 ft | 402 kts | 213° |
| 2026-04-19 12:20 | 36.41064 | -13.60605 | 37050 ft | 402 kts | 213° |
| 2026-04-19 12:20 | 36.36362 | -13.64346 | 37047 ft | 401 kts | 213° |
| 2026-04-19 12:21 | 36.31677 | -13.68081 | 37046 ft | 401 kts | 212° |
| 2026-04-19 12:21 | 36.26971 | -13.71833 | 37045 ft | 401 kts | 212° |
| 2026-04-19 12:22 | 36.22265 | -13.75565 | 37042 ft | 401 kts | 212° |
| 2026-04-19 12:22 | 36.17565 | -13.79280 | 37039 ft | 400 kts | 212° |
| 2026-04-19 12:23 | 36.12861 | -13.82992 | 37038 ft | 400 kts | 212° |
| 2026-04-19 12:23 | 36.08161 | -13.86694 | 37038 ft | 400 kts | 212° |
| 2026-04-19 12:24 | 36.03465 | -13.90387 | 37036 ft | 400 kts | 212° |
| 2026-04-19 12:24 | 35.98751 | -13.94089 | 37037 ft | 401 kts | 212° |
| 2026-04-19 12:25 | 35.94072 | -13.97759 | 37037 ft | 400 kts | 212° |
| 2026-04-19 12:25 | 35.89395 | -14.01420 | 37036 ft | 400 kts | 212° |
| 2026-04-19 12:26 | 35.84681 | -14.05085 | 37032 ft | 400 kts | 212° |
| 2026-04-19 12:26 | 35.79993 | -14.08732 | 37034 ft | 400 kts | 212° |
| 2026-04-19 12:27 | 35.75305 | -14.12381 | 37034 ft | 400 kts | 212° |
| 2026-04-19 12:27 | 35.70616 | -14.16028 | 37034 ft | 400 kts | 212° |
| 2026-04-19 12:28 | 35.63564 | -14.21509 | 37032 ft | 400 kts | 212° |
| 2026-04-19 12:28 | 35.58863 | -14.25156 | 37031 ft | 400 kts | 212° |
| 2026-04-19 12:29 | 35.54151 | -14.28807 | 37031 ft | 401 kts | 212° |
| 2026-04-19 12:29 | 35.48647 | -14.33065 | 37032 ft | 400 kts | 212° |
| 2026-04-19 12:30 | 35.44745 | -14.36080 | 37031 ft | 399 kts | 212° |
| 2026-04-19 12:30 | 35.40049 | -14.39704 | 37029 ft | 399 kts | 211° |
| 2026-04-19 12:31 | 35.35314 | -14.43350 | 37030 ft | 400 kts | 212° |
| 2026-04-19 12:31 | 35.29840 | -14.47561 | 37027 ft | 400 kts | 211° |
| 2026-04-19 12:32 | 35.25931 | -14.50564 | 37028 ft | 399 kts | 212° |
| 2026-04-19 12:32 | 35.21217 | -14.54180 | 37024 ft | 399 kts | 211° |
| 2026-04-19 12:33 | 35.15712 | -14.58397 | 37026 ft | 400 kts | 211° |
| 2026-04-19 12:33 | 35.10959 | -14.62034 | 37026 ft | 400 kts | 211° |
| 2026-04-19 12:34 | 35.07048 | -14.65021 | 37023 ft | 400 kts | 211° |
| 2026-04-19 12:34 | 35.02349 | -14.68630 | 37024 ft | 400 kts | 211° |
| 2026-04-19 12:35 | 34.96840 | -14.72846 | 37031 ft | 400 kts | 211° |
| 2026-04-19 12:35 | 34.92147 | -14.76425 | 37027 ft | 399 kts | 211° |
| 2026-04-19 12:36 | 34.87417 | -14.80012 | 37031 ft | 399 kts | 211° |
| 2026-04-19 12:36 | 34.83469 | -14.82992 | 37028 ft | 400 kts | 211° |
| 2026-04-19 12:37 | 34.78764 | -14.86549 | 37021 ft | 400 kts | 211° |
| 2026-04-19 12:37 | 34.73246 | -14.90719 | 37010 ft | 401 kts | 211° |
| 2026-04-19 12:38 | 34.69281 | -14.93713 | 37002 ft | 401 kts | 211° |
| 2026-04-19 12:38 | 34.64534 | -14.97293 | 36998 ft | 401 kts | 211° |
| 2026-04-19 12:39 | 34.59781 | -15.00876 | 36993 ft | 402 kts | 211° |
| 2026-04-19 12:39 | 34.54253 | -15.05036 | 36991 ft | 402 kts | 211° |
| 2026-04-19 12:40 | 34.50310 | -15.07999 | 36991 ft | 401 kts | 211° |
| 2026-04-19 12:40 | 34.44756 | -15.12168 | 36987 ft | 402 kts | 211° |
| 2026-04-19 12:41 | 34.40002 | -15.15730 | 36986 ft | 402 kts | 211° |
| 2026-04-19 12:41 | 34.35239 | -15.19294 | 36981 ft | 402 kts | 211° |
| 2026-04-19 12:42 | 34.30486 | -15.22846 | 36978 ft | 402 kts | 211° |
| 2026-04-19 12:42 | 34.28092 | -15.24633 | 36615 ft | 406 kts | 211° |
| 2026-04-19 12:42 | 34.25672 | -15.26439 | 36017 ft | 409 kts | 211° |
| 2026-04-19 12:43 | 34.23221 | -15.28265 | 35294 ft | 414 kts | 211° |
| 2026-04-19 12:43 | 34.20771 | -15.30090 | 34572 ft | 417 kts | 211° |
| 2026-04-19 12:43 | 34.19118 | -15.31321 | 34051 ft | 417 kts | 211° |
| 2026-04-19 12:43 | 34.15815 | -15.33782 | 32960 ft | 420 kts | 210° |
| 2026-04-19 12:44 | 34.13352 | -15.35613 | 32244 ft | 420 kts | 210° |
| 2026-04-19 12:44 | 34.11672 | -15.36858 | 31774 ft | 420 kts | 210° |
| 2026-04-19 12:44 | 34.08399 | -15.39283 | 30869 ft | 418 kts | 210° |
| 2026-04-19 12:44 | 34.05903 | -15.41132 | 30153 ft | 418 kts | 210° |
| 2026-04-19 12:45 | 34.03416 | -15.42975 | 29431 ft | 418 kts | 210° |
| 2026-04-19 12:45 | 34.00941 | -15.44807 | 28722 ft | 417 kts | 210° |
| 2026-04-19 12:45 | 33.99312 | -15.46012 | 28243 ft | 417 kts | 210° |
| 2026-04-19 12:45 | 33.96018 | -15.48450 | 27262 ft | 417 kts | 210° |
| 2026-04-19 12:46 | 33.93524 | -15.50294 | 26549 ft | 417 kts | 210° |
| 2026-04-19 12:46 | 33.91079 | -15.52100 | 26086 ft | 411 kts | 210° |
| 2026-04-19 12:46 | 33.88640 | -15.53898 | 25603 ft | 406 kts | 210° |
| 2026-04-19 12:46 | 33.86235 | -15.55662 | 25109 ft | 402 kts | 210° |
| 2026-04-19 12:47 | 33.84668 | -15.56812 | 24777 ft | 400 kts | 210° |
| 2026-04-19 12:47 | 33.81529 | -15.59118 | 24107 ft | 395 kts | 210° |
| 2026-04-19 12:47 | 33.79179 | -15.60847 | 23620 ft | 392 kts | 210° |
| 2026-04-19 12:47 | 33.76872 | -15.62546 | 23152 ft | 389 kts | 210° |
| 2026-04-19 12:48 | 33.74558 | -15.64248 | 22681 ft | 386 kts | 210° |
| 2026-04-19 12:48 | 33.72291 | -15.65917 | 22226 ft | 383 kts | 210° |
| 2026-04-19 12:48 | 33.70031 | -15.67592 | 21766 ft | 380 kts | 210° |
| 2026-04-19 12:48 | 33.67789 | -15.69251 | 21306 ft | 377 kts | 210° |
| 2026-04-19 12:49 | 33.65581 | -15.70877 | 20856 ft | 374 kts | 210° |
| 2026-04-19 12:49 | 33.63357 | -15.72511 | 20396 ft | 371 kts | 210° |
| 2026-04-19 12:49 | 33.61887 | -15.73591 | 20092 ft | 369 kts | 210° |
| 2026-04-19 12:49 | 33.58980 | -15.75719 | 19494 ft | 365 kts | 210° |
| 2026-04-19 12:50 | 33.57573 | -15.76797 | 19197 ft | 364 kts | 213° |
| 2026-04-19 12:50 | 33.54877 | -15.79229 | 18594 ft | 361 kts | 219° |
| 2026-04-19 12:50 | 33.53639 | -15.80538 | 18244 ft | 361 kts | 222° |
| 2026-04-19 12:50 | 33.51226 | -15.83336 | 17575 ft | 359 kts | 223° |
| 2026-04-19 12:51 | 33.49440 | -15.85436 | 17179 ft | 355 kts | 223° |
| 2026-04-19 12:51 | 33.47706 | -15.87474 | 16808 ft | 350 kts | 223° |
| 2026-04-19 12:51 | 33.46544 | -15.88837 | 16533 ft | 348 kts | 223° |
| 2026-04-19 12:51 | 33.44247 | -15.91531 | 15969 ft | 345 kts | 223° |
| 2026-04-19 12:52 | 33.42524 | -15.93549 | 15526 ft | 343 kts | 223° |
| 2026-04-19 12:52 | 33.41380 | -15.94888 | 15229 ft | 342 kts | 223° |
| 2026-04-19 12:52 | 33.39124 | -15.97524 | 14633 ft | 340 kts | 223° |
| 2026-04-19 12:52 | 33.38008 | -15.98828 | 14345 ft | 338 kts | 223° |
| 2026-04-19 12:53 | 33.35766 | -16.01446 | 13751 ft | 336 kts | 223° |
| 2026-04-19 12:53 | 33.34112 | -16.03376 | 13312 ft | 335 kts | 223° |
| 2026-04-19 12:53 | 33.32426 | -16.05343 | 12870 ft | 334 kts | 222° |
| 2026-04-19 12:53 | 33.30756 | -16.07291 | 12257 ft | 339 kts | 222° |
| 2026-04-19 12:54 | 33.29066 | -16.09257 | 11641 ft | 340 kts | 222° |
| 2026-04-19 12:54 | 33.27367 | -16.11235 | 11014 ft | 341 kts | 222° |
| 2026-04-19 12:54 | 33.25656 | -16.13227 | 10552 ft | 336 kts | 222° |
| 2026-04-19 12:54 | 33.23993 | -16.15162 | 10310 ft | 333 kts | 221° |
| 2026-04-19 12:55 | 33.22340 | -16.17080 | 10025 ft | 329 kts | 221° |
| 2026-04-19 12:55 | 33.20700 | -16.18988 | 9629 ft | 324 kts | 221° |
| 2026-04-19 12:55 | 33.19648 | -16.20209 | 9367 ft | 321 kts | 221° |
| 2026-04-19 12:55 | 33.17540 | -16.22658 | 8818 ft | 314 kts | 221° |
| 2026-04-19 12:56 | 33.15979 | -16.24468 | 8448 ft | 309 kts | 221° |
| 2026-04-19 12:56 | 33.14440 | -16.26252 | 8086 ft | 304 kts | 220° |
| 2026-04-19 12:56 | 33.12922 | -16.28009 | 7706 ft | 300 kts | 221° |
| 2026-04-19 12:56 | 33.11447 | -16.29716 | 7342 ft | 296 kts | 220° |
| 2026-04-19 12:57 | 33.09979 | -16.31415 | 6976 ft | 293 kts | 220° |
| 2026-04-19 12:57 | 33.08515 | -16.33109 | 6604 ft | 289 kts | 220° |
| 2026-04-19 12:57 | 33.07087 | -16.34759 | 6238 ft | 286 kts | 220° |
| 2026-04-19 12:57 | 33.05663 | -16.36404 | 5868 ft | 283 kts | 220° |
| 2026-04-19 12:58 | 33.04255 | -16.38032 | 5499 ft | 280 kts | 219° |
| 2026-04-19 12:58 | 33.02877 | -16.39622 | 5137 ft | 278 kts | 220° |
| 2026-04-19 12:58 | 33.01477 | -16.41237 | 4839 ft | 272 kts | 219° |
| 2026-04-19 12:58 | 33.00136 | -16.42786 | 4720 ft | 267 kts | 219° |
| 2026-04-19 12:59 | 32.99263 | -16.43792 | 4633 ft | 266 kts | 219° |
| 2026-04-19 12:59 | 32.97481 | -16.45842 | 4464 ft | 266 kts | 219° |
| 2026-04-19 12:59 | 32.96141 | -16.47386 | 4214 ft | 266 kts | 219° |
| 2026-04-19 12:59 | 32.94807 | -16.48922 | 3977 ft | 266 kts | 219° |
| 2026-04-19 13:00 | 32.93930 | -16.49930 | 3822 ft | 267 kts | 219° |
| 2026-04-19 13:00 | 32.92137 | -16.51940 | 3479 ft | 262 kts | 217° |
| 2026-04-19 13:00 | 32.90790 | -16.53382 | 3226 ft | 256 kts | 217° |